Prospect Creek, Prospect Cree, AK

7:11 AM AKDT on September 05, 2015 (GMT -0800)
Bettles | | Change Station
CLOSE
Current Station
Airport
Location: Bettles,
Elevation: 643 ft
Nearby Weather Stations

Elev 643 ft 66.91 °N, 151.53 °W | Updated 18 minutes ago

Partly Cloudy
Partly Cloudy
31 °F
Feels Like 25 °F
N
6
Wind Variable Wind from NNW

Today
High -- | Low -- °F
--% Chance of Precip.
Yesterday
High -- | Low -- °F
Precip. -- in
6:47 AM 9:12 PM
Waning Gibbous, 48% visible
Pressure 30.01 in
Visibility 10.0 miles
Clouds Few 20000 ft
Windchill 25 °F
Dew Point 27 °F
Humidity 85%
Rainfall 0.00 in
Snow Depth Not available.
UV 0 out of 12
Pollen Not available.
Air Quality Not available.
Flu Activity Not available.
METAR PABT 051453Z 34005KT 10SM FEW200 M01/M03 A2998 RMK AO2 SLP163 T10061028 53009
Pressure 30.01 in
Visibility 10.0 miles
Clouds Few 20000 ft
Windchill 25 °F
Dew Point 27 °F
Humidity 85%
Rainfall 0.00 in
Snow Depth Not available.
UV 0 out of 12
Pollen Not available.
Air Quality Not available.
Flu Activity Not available.
METAR PABT 051453Z 34005KT 10SM FEW200 M01/M03 A2998 RMK AO2 SLP163 T10061028 53009

10-Day Weather Forecast

×

Almanac

Astronomy

Sep. 05, 2015 Rise Set
Actual Time
Civil Twilight
Nautical Twilight
Astronomical Twilight
Moon
Length of Visible Light
Length of Day
Tomorrow will be .
, % of the Moon is Illuminated

Today's Extremes

State Highs State Lows

Community

WunderPhotos

Upload Photos

1,852,480 photos uploaded!

WunderBlogs® & News

Nearby

Air Quality

  Air Quality AQ Index Pollutant
Not available.

Snow Depth

Station Depth Elevation

Earthquake Activity

City Distance Mag. Time & Date
Minimum magnitude displayed is 2.5.

Coastal Water Temperatures

Place Temperature

Stations

Nearby Weather Stations

Station Location Temp. Windchill Dew Point Humidity Wind Precip. Elev Updated Type